Decoded Metar for KTVF (THIEF RIVER in MN, USA) (IATA:TVF) | Meteo·Mobile Aviation Weather
aviador You're here:

KTVF Decoded Metar

THIEF RIVER in MN, USA
Report Time2019-10-18 12:56:00
UTC Time2019-10-18 13:22:12
Flight Rules vfr VFR
Wind130° at 10 kt
W.Decomp.*RWY 13: 10.0 kt HW 0.9 kt LCW
RWY 21: 0.9 kt HW 10 kt LCW
Visibility9999 m
Phenomena:N/A
Clouds:N/A
Expected CloudBase > 1,200 ft AGL from Temp-Dew spread
CeilingNone
Temp07°C (ISA -6)
Dew Point04°C (81% RH)
AAT2.1°C
QNH999 hPa
Density Alt1,014 ft
Elevation1,115 ft
Report Wrong Elevation
Raw Report
KTVF 181256Z AUTO 13010KT 10SM CLR 07/04 A2950 RMK AO2 SLP996
T00720044=

Extra information for KTVF:More info

Metar Taf Metar & Taf Last 4 Metars F.Rules Stats Wind Profile Meteogram Temp Stats Airport Information Weather charts Add Link Nearby VenuesMetar ALERT Operation Metar Decoded Social comments

AIRNAV info for KTVF